Time;durP1;ratioP1;P1;durP2;ratioP2;P2;SDS_P1;SDS_P2;PMS_P1;PMS_P2;Temp;Humidity;BMP_temperature;BMP_pressure;BME280_temperature;BME280_humidity;BME280_pressure;Samples;Min_cycle;Max_cycle;Signal;HPM_P1;HPM_P2
2023/08/26 00:01:30;;;;;;;1999.90;999.90;;;18.50;89.50;;;;;;5090117;28;20028;-71
2023/08/26 00:03:56;;;;;;;1999.90;999.90;;;18.50;90.20;;;;;;5089011;28;20031;-71
2023/08/26 00:06:22;;;;;;;1999.90;999.90;;;18.40;90.40;;;;;;5085575;28;20056;-71
2023/08/26 00:08:50;;;;;;;1999.90;999.90;;;18.30;90.30;;;;;;5088101;28;20109;-71
2023/08/26 00:11:16;;;;;;;1999.90;999.90;;;18.30;90.40;;;;;;5080564;28;20037;-71
2023/08/26 00:13:41;;;;;;;1999.90;999.90;;;18.40;90.40;;;;;;5079412;28;20181;-71
2023/08/26 00:16:07;;;;;;;1999.90;999.90;;;18.30;90.40;;;;;;5082717;28;20055;-71
2023/08/26 00:18:32;;;;;;;1999.90;999.90;;;18.30;90.60;;;;;;5078008;28;20119;-71
2023/08/26 00:20:58;;;;;;;1999.90;999.90;;;18.30;90.50;;;;;;5074574;28;20064;-71
2023/08/26 00:23:24;;;;;;;1999.90;999.90;;;18.30;90.30;;;;;;5089922;28;20047;-71
2023/08/26 00:25:50;;;;;;;1999.90;999.90;;;18.30;90.40;;;;;;5089494;28;20512;-71
2023/08/26 00:28:15;;;;;;;1999.90;999.90;;;18.30;90.40;;;;;;5089589;28;20028;-71
2023/08/26 00:30:42;;;;;;;1999.90;999.90;;;18.20;90.60;;;;;;5087181;28;20032;-71
2023/08/26 00:33:07;;;;;;;1999.90;999.90;;;18.10;90.90;;;;;;5089855;28;20038;-71
2023/08/26 00:35:36;;;;;;;1999.90;999.90;;;18.20;90.80;;;;;;5085329;28;20563;-71
2023/08/26 00:38:02;;;;;;;1999.90;999.90;;;18.20;90.90;;;;;;5088060;28;20036;-71
2023/08/26 00:40:27;;;;;;;1999.90;999.90;;;18.20;90.90;;;;;;5084373;28;20032;-71
2023/08/26 00:42:54;;;;;;;1999.90;999.90;;;18.30;90.70;;;;;;5086125;28;20039;-71
2023/08/26 00:45:20;;;;;;;1999.90;999.90;;;18.30;90.90;;;;;;5088958;28;20059;-71
2023/08/26 00:47:46;;;;;;;1999.90;999.90;;;18.30;90.80;;;;;;5084734;28;20052;-71
2023/08/26 00:50:12;;;;;;;1999.90;999.90;;;18.30;90.70;;;;;;5088499;28;20040;-71
2023/08/26 00:52:38;;;;;;;1999.90;999.90;;;18.40;90.80;;;;;;5084692;28;20032;-71
2023/08/26 00:55:06;;;;;;;1999.90;999.90;;;18.30;90.90;;;;;;5086721;28;20154;-72
2023/08/26 00:57:32;;;;;;;1999.90;999.90;;;18.30;90.80;;;;;;5085800;28;20039;-71
2023/08/26 00:59:57;;;;;;;1999.90;999.90;;;18.30;90.90;;;;;;5089150;28;20024;-71
2023/08/26 01:02:23;;;;;;;1999.90;999.90;;;18.30;91.10;;;;;;5090578;28;20036;-71
2023/08/26 01:04:49;;;;;;;1999.90;999.90;;;18.40;90.80;;;;;;5086742;28;20490;-71
2023/08/26 01:07:15;;;;;;;1999.90;999.90;;;18.40;90.90;;;;;;5085924;28;20086;-71
2023/08/26 01:09:41;;;;;;;1999.90;999.90;;;18.40;90.80;;;;;;5085982;28;20032;-71
2023/08/26 01:12:21;;;;;;;1999.90;999.90;;;18.40;90.90;;;;;;5089439;28;20039;-71
2023/08/26 01:15:02;;;;;;;1999.90;999.90;;;18.40;90.80;;;;;;5090934;28;20024;-71
2023/08/26 01:17:28;;;;;;;1999.90;999.90;;;18.50;90.70;;;;;;5088058;28;20047;-71
2023/08/26 01:19:56;;;;;;;1999.90;999.90;;;18.50;90.80;;;;;;5086441;28;20432;-71
2023/08/26 01:22:24;;;;;;;1999.90;999.90;;;18.50;90.90;;;;;;5089119;28;20016;-72
2023/08/26 01:24:50;;;;;;;1999.90;999.90;;;18.50;90.90;;;;;;5088908;28;20078;-71
2023/08/26 01:27:16;;;;;;;1999.90;999.90;;;18.40;90.90;;;;;;5087377;28;20437;-71
2023/08/26 01:29:41;;;;;;;1999.90;999.90;;;18.40;90.90;;;;;;5086190;28;20040;-71
2023/08/26 01:32:16;;;;;;;1999.90;999.90;;;18.50;90.80;;;;;;5088403;28;20085;-71
2023/08/26 01:34:46;;;;;;;1999.90;999.90;;;18.40;90.90;;;;;;5086930;28;20054;-71
2023/08/26 01:37:13;;;;;;;1999.90;999.90;;;18.50;90.70;;;;;;5082821;28;20042;-71
2023/08/26 01:39:40;;;;;;;1999.90;999.90;;;18.60;90.80;;;;;;5085804;28;20088;-71
2023/08/26 01:42:07;;;;;;;1999.90;999.90;;;18.60;90.80;;;;;;5086802;28;20032;-71
2023/08/26 01:44:33;;;;;;;1999.90;999.90;;;18.60;90.80;;;;;;5088381;28;20038;-71
2023/08/26 01:46:59;;;;;;;1999.90;999.90;;;18.60;90.80;;;;;;5088882;28;20439;-72
2023/08/26 01:49:24;;;;;;;1999.90;999.90;;;18.70;90.80;;;;;;5087281;28;20028;-71
2023/08/26 01:51:50;;;;;;;1999.90;999.90;;;18.60;90.80;;;;;;5086075;28;20099;-71
2023/08/26 01:54:16;;;;;;;1999.90;999.90;;;18.70;91.00;;;;;;5087301;28;20063;-71
2023/08/26 01:56:41;;;;;;;1999.90;999.90;;;18.70;90.80;;;;;;5087738;28;20040;-75
2023/08/26 01:59:07;;;;;;;1999.90;999.90;;;18.60;91.10;;;;;;5089630;28;20059;-71
2023/08/26 02:01:33;;;;;;;1999.90;999.90;;;18.70;91.00;;;;;;5083932;28;20060;-71
2023/08/26 02:04:00;;;;;;;1999.90;999.90;;;18.70;91.00;;;;;;5083707;28;20545;-71
2023/08/26 02:06:26;;;;;;;1999.90;999.90;;;18.70;90.80;;;;;;5091392;28;20024;-71
2023/08/26 02:08:54;;;;;;;1999.90;999.90;;;18.70;90.90;;;;;;5091787;28;20077;-70
2023/08/26 02:11:21;;;;;;;1999.90;999.90;;;18.60;90.90;;;;;;5093448;28;20044;-71
2023/08/26 02:13:46;;;;;;;1999.90;999.90;;;18.60;90.90;;;;;;5091205;28;20032;-72
2023/08/26 02:16:12;;;;;;;1999.90;999.90;;;18.60;90.80;;;;;;5089992;28;20070;-71
2023/08/26 02:18:38;;;;;;;1999.90;999.90;;;18.60;90.80;;;;;;5091870;28;20035;-71
2023/08/26 02:21:04;;;;;;;1999.90;999.90;;;18.60;90.70;;;;;;5086744;28;20109;-72
2023/08/26 02:23:30;;;;;;;1999.90;999.90;;;18.70;90.70;;;;;;5091666;28;20059;-71
2023/08/26 02:25:55;;;;;;;1999.90;999.90;;;18.70;90.70;;;;;;5090775;28;20074;-71
2023/08/26 02:28:21;;;;;;;1999.90;999.90;;;18.60;90.70;;;;;;5106115;28;20028;-71
2023/08/26 02:30:47;;;;;;;1999.90;999.90;;;18.70;90.50;;;;;;5107559;28;20036;-70
2023/08/26 02:33:12;;;;;;;1999.90;999.90;;;18.80;90.60;;;;;;5106648;28;20059;-70
2023/08/26 02:35:38;;;;;;;1999.90;999.90;;;18.70;90.80;;;;;;5105709;28;20039;-72
2023/08/26 02:38:03;;;;;;;1999.90;999.90;;;18.80;90.80;;;;;;5110051;28;20036;-70
2023/08/26 02:40:29;;;;;;;1999.90;999.90;;;18.70;90.70;;;;;;5107005;28;20031;-71
2023/08/26 02:42:55;;;;;;;1999.90;999.90;;;18.70;90.80;;;;;;5107366;28;20043;-70
2023/08/26 02:45:20;;;;;;;1999.90;999.90;;;18.70;91.20;;;;;;5094541;28;20494;-71
2023/08/26 02:47:46;;;;;;;1999.90;999.90;;;18.70;91.20;;;;;;5092273;28;20547;-71
2023/08/26 02:50:12;;;;;;;1999.90;999.90;;;18.70;91.10;;;;;;5090591;28;20040;-71
2023/08/26 02:52:37;;;;;;;1999.90;999.90;;;18.80;91.10;;;;;;5089711;28;20057;-71
2023/08/26 02:55:03;;;;;;;1999.90;999.90;;;18.70;91.20;;;;;;5095127;28;20058;-71
2023/08/26 02:57:29;;;;;;;1999.90;999.90;;;18.70;91.70;;;;;;5091343;28;20044;-71
2023/08/26 02:59:54;;;;;;;1999.90;999.90;;;18.70;91.30;;;;;;5091205;28;20043;-72
2023/08/26 03:02:24;;;;;;;1999.90;999.90;;;18.70;91.30;;;;;;5091141;28;20025;-71
2023/08/26 03:04:51;;;;;;;1999.90;999.90;;;18.80;91.30;;;;;;5089623;28;20115;-71
2023/08/26 03:07:16;;;;;;;1999.90;999.90;;;18.70;91.30;;;;;;5088872;28;20052;-71
2023/08/26 03:09:42;;;;;;;1999.90;999.90;;;18.70;91.40;;;;;;5091050;28;20064;-71
2023/08/26 03:12:08;;;;;;;1999.90;999.90;;;18.70;91.40;;;;;;5090587;28;20040;-71
2023/08/26 03:14:33;;;;;;;1999.90;999.90;;;18.70;91.40;;;;;;5088016;28;20043;-71
2023/08/26 03:16:59;;;;;;;1999.90;999.90;;;18.80;91.40;;;;;;5089958;28;20039;-71
2023/08/26 03:19:25;;;;;;;1999.90;999.90;;;18.80;91.30;;;;;;5088288;28;20542;-71
2023/08/26 03:21:51;;;;;;;1999.90;999.90;;;18.80;91.30;;;;;;5090685;28;20501;-71
2023/08/26 03:24:17;;;;;;;1999.90;999.90;;;18.80;91.20;;;;;;5090023;28;20105;-71
2023/08/26 03:26:43;;;;;;;1999.90;999.90;;;18.90;91.20;;;;;;5088201;28;20157;-72
2023/08/26 03:29:09;;;;;;;1999.90;999.90;;;18.80;91.00;;;;;;5090697;28;20498;-71
2023/08/26 03:31:34;;;;;;;1999.90;999.90;;;18.80;91.00;;;;;;5088255;28;20030;-70
2023/08/26 03:34:00;;;;;;;1999.90;999.90;;;18.80;91.00;;;;;;5090768;28;20597;-71
2023/08/26 03:36:26;;;;;;;1999.90;999.90;;;18.80;90.90;;;;;;5090178;28;20042;-71
2023/08/26 03:38:51;;;;;;;1999.90;999.90;;;18.80;91.00;;;;;;5087262;28;20100;-71
2023/08/26 03:41:17;;;;;;;1999.90;999.90;;;18.80;91.10;;;;;;5089299;28;20161;-70
2023/08/26 03:43:43;;;;;;;1999.90;999.90;;;18.70;91.00;;;;;;5089156;28;20394;-71
2023/08/26 03:46:08;;;;;;;1999.90;999.90;;;18.70;91.20;;;;;;5094125;28;20124;-71
2023/08/26 03:48:34;;;;;;;1999.90;999.90;;;18.60;91.30;;;;;;5093241;28;20510;-71
2023/08/26 03:51:00;;;;;;;1999.90;999.90;;;18.60;91.40;;;;;;5093645;28;20031;-71
2023/08/26 03:53:27;;;;;;;1999.90;999.90;;;18.50;91.60;;;;;;5087294;28;20410;-72
2023/08/26 03:55:52;;;;;;;1999.90;999.90;;;18.50;91.60;;;;;;5097320;28;20039;-70
2023/08/26 03:58:18;;;;;;;1999.90;999.90;;;18.50;91.60;;;;;;5108799;28;20092;-70
2023/08/26 04:00:44;;;;;;;1999.90;999.90;;;18.50;91.70;;;;;;5105167;28;20059;-71
2023/08/26 04:03:10;;;;;;;1999.90;999.90;;;18.50;91.80;;;;;;5095678;28;20036;-71
2023/08/26 04:05:36;;;;;;;1999.90;999.90;;;18.50;91.80;;;;;;5090462;28;20118;-71
2023/08/26 04:08:02;;;;;;;1999.90;999.90;;;18.50;91.70;;;;;;5092590;28;20039;-71
2023/08/26 04:10:28;;;;;;;1999.90;999.90;;;18.50;91.70;;;;;;5090361;28;20535;-71
2023/08/26 04:13:20;;;;;;;1999.90;999.90;;;18.50;91.60;;;;;;5088773;28;20069;-71
2023/08/26 04:15:46;;;;;;;1999.90;999.90;;;18.60;91.60;;;;;;5085867;28;20080;-71
2023/08/26 04:18:14;;;;;;;1999.90;999.90;;;18.60;91.70;;;;;;5090171;28;20032;-71
2023/08/26 04:20:39;;;;;;;1999.90;999.90;;;18.60;91.60;;;;;;5086294;28;20934;-71
2023/08/26 04:23:05;;;;;;;1999.90;999.90;;;18.60;91.60;;;;;;5088921;28;20114;-71
2023/08/26 04:25:30;;;;;;;1999.90;999.90;;;18.60;91.60;;;;;;5087014;28;20035;-71
2023/08/26 04:27:56;;;;;;;1999.90;999.90;;;18.60;91.40;;;;;;5088397;28;20058;-71
2023/08/26 04:30:22;;;;;;;1999.90;999.90;;;18.70;91.30;;;;;;5089104;28;20386;-71
2023/08/26 04:32:48;;;;;;;1999.90;999.90;;;18.60;91.40;;;;;;5089807;28;20405;-71
2023/08/26 04:35:13;;;;;;;1999.90;999.90;;;18.60;91.40;;;;;;5087063;28;20031;-71
2023/08/26 04:37:39;;;;;;;1999.90;999.90;;;18.60;91.50;;;;;;5088224;28;20105;-71
2023/08/26 04:40:14;;;;;;;1999.90;999.90;;;18.60;91.50;;;;;;5080409;28;20047;-71
2023/08/26 04:42:40;;;;;;;1999.90;999.90;;;18.60;91.40;;;;;;5089310;28;20024;-71
2023/08/26 04:45:06;;;;;;;1999.90;999.90;;;18.60;91.80;;;;;;5089202;28;20048;-71
2023/08/26 04:47:33;;;;;;;1999.90;999.90;;;18.60;92.00;;;;;;5089751;28;20065;-71
2023/08/26 04:49:58;;;;;;;1999.90;999.90;;;18.50;92.70;;;;;;5083339;28;20031;-71
2023/08/26 04:52:25;;;;;;;1999.90;999.90;;;18.40;94.10;;;;;;5089063;28;21273;-71
2023/08/26 04:54:51;;;;;;;1999.90;999.90;;;18.30;95.10;;;;;;5087404;28;20064;-71
2023/08/26 04:57:19;;;;;;;1999.90;999.90;;;18.20;95.40;;;;;;5086356;28;20489;-72
2023/08/26 04:59:45;;;;;;;1999.90;999.90;;;18.20;95.70;;;;;;5087448;28;20032;-71
2023/08/26 05:02:11;;;;;;;1999.90;999.90;;;18.20;95.90;;;;;;5083548;28;20032;-71
2023/08/26 05:04:37;;;;;;;1999.90;999.90;;;18.20;96.00;;;;;;5081544;28;20505;-71
2023/08/26 05:07:03;;;;;;;1999.90;999.90;;;18.20;96.00;;;;;;5077542;28;20120;-71
2023/08/26 05:09:30;;;;;;;1999.90;999.90;;;18.30;96.10;;;;;;5081846;28;20123;-71
2023/08/26 05:11:57;;;;;;;1999.90;999.90;;;18.30;96.20;;;;;;5084746;28;20052;-71
2023/08/26 05:14:23;;;;;;;1999.90;999.90;;;18.30;96.20;;;;;;5086086;28;20532;-71
2023/08/26 05:16:49;;;;;;;1999.90;999.90;;;18.20;96.30;;;;;;5086831;28;20059;-71
2023/08/26 05:19:14;;;;;;;1999.90;999.90;;;18.40;96.30;;;;;;5085201;28;20067;-71
2023/08/26 05:21:40;;;;;;;1999.90;999.90;;;18.40;96.20;;;;;;5086916;28;20443;-72
2023/08/26 05:24:06;;;;;;;1999.90;999.90;;;18.40;96.20;;;;;;5078473;28;20059;-71
2023/08/26 05:26:32;;;;;;;1999.90;999.90;;;18.40;96.10;;;;;;5079553;28;20111;-71
2023/08/26 05:28:58;;;;;;;1999.90;999.90;;;18.40;96.20;;;;;;5087950;28;20039;-71
2023/08/26 05:31:24;;;;;;;1999.90;999.90;;;18.30;96.10;;;;;;5083896;28;20032;-71
2023/08/26 05:33:49;;;;;;;1999.90;999.90;;;18.30;96.20;;;;;;5082581;28;20545;-71
2023/08/26 05:36:15;;;;;;;1999.90;999.90;;;18.20;96.30;;;;;;5088440;28;20036;-71
2023/08/26 05:38:40;;;;;;;1999.90;999.90;;;18.20;96.40;;;;;;5089438;28;20528;-71
2023/08/26 05:41:06;;;;;;;1999.90;999.90;;;18.40;96.50;;;;;;5081709;28;20045;-71
2023/08/26 05:43:32;;;;;;;1999.90;999.90;;;18.40;96.50;;;;;;5084307;28;20506;-72
2023/08/26 05:45:57;;;;;;;1999.90;999.90;;;18.50;96.50;;;;;;5070145;28;20028;-71
2023/08/26 05:48:23;;;;;;;1999.90;999.90;;;18.60;96.50;;;;;;5080848;28;20494;-72
2023/08/26 05:50:49;;;;;;;1999.90;999.90;;;18.60;96.60;;;;;;5089251;28;20045;-71
2023/08/26 05:53:14;;;;;;;1999.90;999.90;;;18.70;96.50;;;;;;5083125;28;20118;-71
2023/08/26 05:55:44;;;;;;;1999.90;999.90;;;18.90;96.30;;;;;;5087113;28;20047;-71
2023/08/26 05:58:09;;;;;;;1999.90;999.90;;;19.00;96.40;;;;;;5084949;28;20394;-71
2023/08/26 06:00:35;;;;;;;1999.90;999.90;;;19.10;96.60;;;;;;5091916;28;20036;-71
2023/08/26 06:03:01;;;;;;;1999.90;999.90;;;19.30;96.30;;;;;;5086931;28;20024;-71
2023/08/26 06:05:27;;;;;;;1999.90;999.90;;;19.40;96.20;;;;;;5091946;28;20036;-71
2023/08/26 06:07:53;;;;;;;1999.90;999.90;;;19.30;94.70;;;;;;5088572;28;20030;-71
2023/08/26 06:10:19;;;;;;;1999.90;999.90;;;19.40;96.20;;;;;;5080638;28;20028;-71
2023/08/26 06:12:44;;;;;;;1999.90;999.90;;;19.50;96.00;;;;;;5086222;28;20131;-71
2023/08/26 06:15:10;;;;;;;1999.90;999.90;;;19.60;95.70;;;;;;5079339;28;20478;-72
2023/08/26 06:17:37;;;;;;;1999.90;999.90;;;19.60;95.60;;;;;;5090375;28;20028;-71
2023/08/26 06:20:03;;;;;;;1999.90;999.90;;;19.90;96.10;;;;;;5086395;28;20484;-71
2023/08/26 06:22:29;;;;;;;1999.90;999.90;;;19.90;95.20;;;;;;5085892;28;20538;-71
2023/08/26 06:25:15;;;;;;;1999.90;999.90;;;20.10;95.70;;;;;;5083474;28;20043;-71
2023/08/26 06:27:41;;;;;;;1999.90;999.90;;;20.00;95.50;;;;;;5076117;28;20123;-71
2023/08/26 06:30:08;;;;;;;1999.90;999.90;;;19.90;95.20;;;;;;5084322;28;20115;-71
2023/08/26 06:32:34;;;;;;;1999.90;999.90;;;19.80;95.10;;;;;;5084162;28;20115;-72
2023/08/26 06:35:00;;;;;;;1999.90;999.90;;;19.90;95.20;;;;;;5080018;28;20031;-71
2023/08/26 06:37:26;;;;;;;1999.90;999.90;;;19.80;94.70;;;;;;5081341;28;20028;-72
2023/08/26 06:39:52;;;;;;;1999.90;999.90;;;19.70;94.60;;;;;;5088879;28;20139;-71
2023/08/26 06:42:18;;;;;;;1999.90;999.90;;;19.80;94.60;;;;;;5083411;28;20147;-71
2023/08/26 06:44:43;;;;;;;1999.90;999.90;;;19.90;95.20;;;;;;5089392;28;20028;-71
2023/08/26 06:47:10;;;;;;;1999.90;999.90;;;20.10;95.70;;;;;;5091431;28;20036;-71
2023/08/26 06:49:36;;;;;;;1999.90;999.90;;;20.00;94.80;;;;;;5088167;28;20035;-71
2023/08/26 06:52:02;;;;;;;1999.90;999.90;;;20.20;94.80;;;;;;5087512;28;20031;-70
2023/08/26 06:54:28;;;;;;;1999.90;999.90;;;20.40;94.70;;;;;;5086779;28;20043;-71
2023/08/26 06:56:54;;;;;;;1999.90;999.90;;;20.50;94.30;;;;;;5089447;28;20409;-71
2023/08/26 06:59:19;;;;;;;1999.90;999.90;;;20.50;94.30;;;;;;5083593;28;20032;-71
2023/08/26 07:01:45;;;;;;;1999.90;999.90;;;20.40;92.70;;;;;;5091615;28;20032;-71
2023/08/26 07:04:12;;;;;;;1999.90;999.90;;;20.30;93.30;;;;;;5083611;28;20389;-71
2023/08/26 07:06:38;;;;;;;1999.90;999.90;;;20.20;93.70;;;;;;5092178;28;20518;-72
2023/08/26 07:09:05;;;;;;;1999.90;999.90;;;20.10;94.50;;;;;;5087202;28;20074;-71
2023/08/26 07:11:31;;;;;;;1999.90;999.90;;;20.30;93.00;;;;;;5089718;28;20720;-71
2023/08/26 07:13:58;;;;;;;1999.90;999.90;;;20.50;93.60;;;;;;5085497;28;20036;-72
2023/08/26 07:16:25;;;;;;;1999.90;999.90;;;20.60;94.00;;;;;;5088729;28;20059;-72
2023/08/26 07:18:51;;;;;;;1999.90;999.90;;;20.50;93.30;;;;;;5093515;27;20036;-72
2023/08/26 07:21:16;;;;;;;1999.90;999.90;;;20.50;92.70;;;;;;5084559;28;20448;-70
2023/08/26 07:23:42;;;;;;;1999.90;999.90;;;20.60;93.40;;;;;;5087763;28;20051;-71
2023/08/26 07:26:08;;;;;;;1999.90;999.90;;;20.90;93.40;;;;;;5084411;28;20039;-72
2023/08/26 07:28:33;;;;;;;1999.90;999.90;;;21.20;91.40;;;;;;5091631;28;20077;-71
2023/08/26 07:31:04;;;;;;;1999.90;999.90;;;21.50;90.30;;;;;;5083782;28;20041;-71
2023/08/26 07:33:31;;;;;;;1999.90;999.90;;;21.90;85.90;;;;;;5089662;28;20040;-71
2023/08/26 07:36:08;;;;;;;1999.90;999.90;;;21.80;81.00;;;;;;5091551;28;20016;-68
2023/08/26 07:38:34;;;;;;;1999.90;999.90;;;22.00;79.90;;;;;;5096328;28;20036;-68
2023/08/26 07:41:00;;;;;;;1999.90;999.90;;;22.60;77.80;;;;;;5081983;28;20067;-72
2023/08/26 07:43:26;;;;;;;1999.90;999.90;;;22.80;70.40;;;;;;5081954;28;20155;-72
2023/08/26 07:45:52;;;;;;;1999.90;999.90;;;22.90;74.10;;;;;;5080643;28;20041;-72
2023/08/26 07:48:17;;;;;;;1999.90;999.90;;;23.20;72.20;;;;;;5086936;28;20031;-70
2023/08/26 07:50:43;;;;;;;1999.90;999.90;;;23.00;70.00;;;;;;5088148;28;20375;-70
2023/08/26 07:53:09;;;;;;;1999.90;999.90;;;22.50;70.20;;;;;;5090921;28;20383;-70
2023/08/26 07:55:35;;;;;;;1999.90;999.90;;;22.40;70.00;;;;;;5089894;28;20035;-70
2023/08/26 07:58:00;;;;;;;1999.90;999.90;;;22.20;70.20;;;;;;5087116;28;20775;-70
2023/08/26 08:00:27;;;;;;;1999.90;999.90;;;22.40;70.30;;;;;;5075208;28;20027;-71
2023/08/26 08:02:55;;;;;;;1999.90;999.90;;;22.40;70.20;;;;;;5084878;28;20423;-71
2023/08/26 08:05:21;;;;;;;1999.90;999.90;;;22.10;70.10;;;;;;5086260;28;20077;-71
2023/08/26 08:07:47;;;;;;;1999.90;999.90;;;22.00;71.50;;;;;;5083658;28;20432;-71
2023/08/26 08:10:13;;;;;;;1999.90;999.90;;;22.10;71.10;;;;;;5082645;28;20103;-71
2023/08/26 08:12:38;;;;;;;1999.90;999.90;;;22.30;69.90;;;;;;5079507;28;20035;-71
2023/08/26 08:15:05;;;;;;;1999.90;999.90;;;22.50;69.70;;;;;;5081625;28;20025;-71
2023/08/26 08:17:31;;;;;;;1999.90;999.90;;;22.80;68.60;;;;;;5080442;28;20509;-70
2023/08/26 08:19:57;;;;;;;1999.90;999.90;;;22.90;66.90;;;;;;5085631;28;20115;-70
2023/08/26 08:22:41;;;;;;;1999.90;999.90;;;23.00;67.50;;;;;;5085373;28;20115;-71
2023/08/26 08:25:08;;;;;;;1999.90;999.90;;;22.90;67.80;;;;;;5085853;28;20122;-70
2023/08/26 08:27:34;;;;;;;1999.90;999.90;;;22.80;67.60;;;;;;5079168;28;20021;-70
2023/08/26 08:29:59;;;;;;;1999.90;999.90;;;22.90;68.20;;;;;;5082128;28;20444;-71
2023/08/26 08:32:25;;;;;;;1999.90;999.90;;;22.70;67.80;;;;;;5078557;28;20470;-71
2023/08/26 08:34:52;;;;;;;1999.90;999.90;;;23.00;68.00;;;;;;5078271;28;20036;-71
2023/08/26 08:37:18;;;;;;;1999.90;999.90;;;23.50;66.30;;;;;;5083961;28;20036;-70
2023/08/26 08:39:44;;;;;;;1999.90;999.90;;;23.00;70.70;;;;;;5078072;28;20044;-71
2023/08/26 08:42:12;;;;;;;1999.90;999.90;;;23.10;69.10;;;;;;5081487;28;20044;-71
2023/08/26 08:44:46;;;;;;;1999.90;999.90;;;23.00;71.20;;;;;;5084181;28;20510;-70
2023/08/26 08:47:13;;;;;;;1999.90;999.90;;;23.40;67.20;;;;;;5082876;28;20036;-70
2023/08/26 08:49:41;;;;;;;1999.90;999.90;;;23.60;67.00;;;;;;5088784;28;20727;-70
2023/08/26 08:52:07;;;;;;;1999.90;999.90;;;23.90;66.40;;;;;;5089936;28;20145;-70
2023/08/26 08:54:35;;;;;;;1999.90;999.90;;;23.70;66.40;;;;;;5092733;28;20075;-70
2023/08/26 08:57:06;;;;;;;1999.90;999.90;;;23.40;69.00;;;;;;5089269;28;20111;-70
2023/08/26 08:59:35;;;;;;;1999.90;999.90;;;23.60;66.30;;;;;;5082916;28;20056;-70
2023/08/26 09:02:03;;;;;;;1999.90;999.90;;;23.90;68.30;;;;;;5084117;28;20043;-70
2023/08/26 09:04:29;;;;;;;1999.90;999.90;;;23.80;70.20;;;;;;5090719;28;20034;-70
2023/08/26 09:07:13;;;;;;;1999.90;999.90;;;24.00;66.60;;;;;;5090842;28;20482;-70
2023/08/26 09:09:39;;;;;;;1999.90;999.90;;;23.80;65.00;;;;;;5089779;28;20535;-70
2023/08/26 09:12:08;;;;;;;1999.90;999.90;;;23.40;68.80;;;;;;5090383;28;20056;-70
2023/08/26 09:14:34;;;;;;;1999.90;999.90;;;23.30;68.20;;;;;;5095680;28;20043;-70
2023/08/26 09:17:18;;;;;;;1999.90;999.90;;;24.00;65.90;;;;;;5090037;28;20039;-71
2023/08/26 09:19:55;;;;;;;1999.90;999.90;;;24.60;65.40;;;;;;5089987;28;20056;-71
2023/08/26 09:22:29;;;;;;;1999.90;999.90;;;24.20;64.50;;;;;;5092006;28;20024;-70
2023/08/26 09:25:03;;;;;;;1999.90;999.90;;;24.20;63.60;;;;;;5087060;28;20116;-70
2023/08/26 09:27:33;;;;;;;1999.90;999.90;;;23.90;67.20;;;;;;5087184;28;20059;-70
2023/08/26 09:29:58;;;;;;;1999.90;999.90;;;24.00;65.50;;;;;;5090404;28;20430;-70
2023/08/26 09:32:35;;;;;;;1999.90;999.90;;;23.50;66.60;;;;;;5090561;28;20035;-71
2023/08/26 09:35:14;;;;;;;1999.90;999.90;;;24.10;66.70;;;;;;5089414;28;20040;-70
2023/08/26 09:37:42;;;;;;;1999.90;999.90;;;24.20;63.60;;;;;;5087457;28;20059;-70
2023/08/26 09:40:15;;;;;;;1999.90;999.90;;;23.90;66.00;;;;;;5087707;28;20270;-70
2023/08/26 09:42:42;;;;;;;1999.90;999.90;;;23.80;67.80;;;;;;5093793;28;20047;-70
2023/08/26 09:45:17;;;;;;;1999.90;999.90;;;23.90;66.20;;;;;;5087302;28;20103;-72
2023/08/26 09:47:46;;;;;;;1999.90;999.90;;;24.40;64.50;;;;;;5091492;28;20486;-71
2023/08/26 09:50:12;;;;;;;1999.90;999.90;;;24.40;65.00;;;;;;5089906;28;20028;-70
2023/08/26 09:52:42;;;;;;;1999.90;999.90;;;24.30;65.00;;;;;;5091481;28;20020;-71
2023/08/26 09:55:08;;;;;;;1999.90;999.90;;;25.00;62.00;;;;;;5090884;28;20048;-71
2023/08/26 09:57:34;;;;;;;1999.90;999.90;;;24.60;65.00;;;;;;5092186;28;20028;-72
2023/08/26 10:00:00;;;;;;;1999.90;999.90;;;24.80;60.80;;;;;;5090689;28;20443;-71
2023/08/26 10:02:28;;;;;;;1999.90;999.90;;;24.80;63.90;;;;;;5091114;28;20024;-70
2023/08/26 10:04:59;;;;;;;1999.90;999.90;;;24.70;61.20;;;;;;5093555;28;20016;-71
2023/08/26 10:07:27;;;;;;;1999.90;999.90;;;24.50;61.60;;;;;;5088029;28;20032;-71
2023/08/26 10:10:00;;;;;;;1999.90;999.90;;;24.50;62.00;;;;;;5089666;28;20036;-71
2023/08/26 10:12:30;;;;;;;1999.90;999.90;;;24.20;63.10;;;;;;5090762;28;20118;-71
2023/08/26 10:15:01;;;;;;;1999.90;999.90;;;24.30;63.30;;;;;;5091287;28;20036;-71
2023/08/26 10:17:28;;;;;;;1999.90;999.90;;;24.60;64.00;;;;;;5094912;28;20031;-71
2023/08/26 10:19:55;;;;;;;1999.90;999.90;;;25.00;62.00;;;;;;5091761;28;20081;-70
2023/08/26 10:22:21;;;;;;;1999.90;999.90;;;25.30;59.80;;;;;;5086521;28;20082;-71
2023/08/26 10:24:48;;;;;;;1999.90;999.90;;;25.60;59.50;;;;;;5084181;28;20477;-72
2023/08/26 10:27:14;;;;;;;1999.90;999.90;;;25.70;61.40;;;;;;5081896;28;20024;-71
2023/08/26 10:29:40;;;;;;;1999.90;999.90;;;25.90;60.60;;;;;;5080380;28;20052;-71
2023/08/26 10:32:19;;;;;;;1999.90;999.90;;;25.90;61.30;;;;;;5086847;28;20036;-71
2023/08/26 10:34:53;;;;;;;;;;;25.50;61.10;;;;;;5083195;28;20105;-71
2023/08/26 10:37:22;;;;;;;1999.90;999.90;;;25.30;60.60;;;;;;5102702;28;20307;-72
2023/08/26 10:39:48;;;;;;;1999.90;999.90;;;24.90;61.30;;;;;;5104259;28;20032;-72
2023/08/26 10:42:16;;;;;;;1999.90;999.90;;;25.20;61.20;;;;;;5088522;28;20119;-71
2023/08/26 10:44:45;;;;;;;1999.90;999.90;;;24.90;61.90;;;;;;5091229;28;20054;-71
2023/08/26 10:47:11;;;;;;;1999.90;999.90;;;25.10;60.80;;;;;;5090248;28;20028;-71
2023/08/26 10:49:38;;;;;;;1999.90;999.90;;;25.40;60.90;;;;;;5089686;28;20111;-71
2023/08/26 10:52:09;;;;;;;1999.90;999.90;;;25.10;61.60;;;;;;5088806;28;20070;-71
2023/08/26 10:54:36;;;;;;;1999.90;999.90;;;24.90;59.50;;;;;;5090854;28;20049;-71
2023/08/26 10:57:08;;;;;;;1999.90;999.90;;;25.00;61.20;;;;;;5087786;28;20068;-71
2023/08/26 10:59:36;;;;;;;1999.90;999.90;;;25.20;60.10;;;;;;5082096;28;20058;-70
2023/08/26 11:02:05;;;;;;;1999.90;999.90;;;24.80;62.70;;;;;;5083578;28;20413;-71
2023/08/26 11:04:31;;;;;;;1999.90;999.90;;;24.80;61.30;;;;;;5086130;28;20036;-71
2023/08/26 11:06:57;;;;;;;1999.90;999.90;;;24.60;61.10;;;;;;5087066;28;20028;-71
2023/08/26 11:09:23;;;;;;;1999.90;999.90;;;24.80;61.70;;;;;;5084869;28;20612;-71
2023/08/26 11:11:49;;;;;;;1999.90;999.90;;;24.80;58.50;;;;;;5089642;28;20036;-71
2023/08/26 11:14:14;;;;;;;1999.90;999.90;;;25.00;59.10;;;;;;5088452;28;20067;-70
2023/08/26 11:16:40;;;;;;;1999.90;999.90;;;24.80;59.70;;;;;;5082620;28;20064;-71
2023/08/26 11:19:07;;;;;;;1999.90;999.90;;;24.40;60.90;;;;;;5087356;28;20447;-71
2023/08/26 11:21:37;;;;;;;1999.90;999.90;;;23.90;61.80;;;;;;5085805;28;20044;-71
2023/08/26 11:24:03;;;;;;;1999.90;999.90;;;23.60;63.30;;;;;;5083446;28;20024;-71
2023/08/26 11:26:29;;;;;;;1999.90;999.90;;;23.60;63.80;;;;;;5082925;28;20050;-71
2023/08/26 11:28:58;;;;;;;1999.90;999.90;;;23.10;65.20;;;;;;5084411;28;20047;-70
2023/08/26 11:31:24;;;;;;;1999.90;999.90;;;23.00;66.60;;;;;;5080359;28;20036;-71
2023/08/26 11:33:51;;;;;;;1999.90;999.90;;;22.80;67.40;;;;;;5077248;28;20040;-71
2023/08/26 11:36:22;;;;;;;1999.90;999.90;;;22.60;68.70;;;;;;5087887;28;20036;-71
2023/08/26 11:38:48;;;;;;;1999.90;999.90;;;22.50;68.90;;;;;;5083559;28;20493;-71
2023/08/26 11:41:14;;;;;;;1999.90;999.90;;;22.40;69.30;;;;;;5084464;28;20060;-71
2023/08/26 11:43:40;;;;;;;1999.90;999.90;;;22.20;69.70;;;;;;5089614;28;20402;-71
2023/08/26 11:46:06;;;;;;;1999.90;999.90;;;22.20;70.00;;;;;;5084597;28;20047;-71
2023/08/26 11:48:35;;;;;;;1999.90;999.90;;;22.00;70.20;;;;;;5091160;28;20034;-71
2023/08/26 11:51:02;;;;;;;1999.90;999.90;;;22.00;70.50;;;;;;5088367;28;20031;-70
2023/08/26 11:53:28;;;;;;;1999.90;999.90;;;21.90;70.90;;;;;;5088665;28;20060;-71
2023/08/26 11:55:54;;;;;;;1999.90;999.90;;;21.90;70.90;;;;;;5084030;28;20393;-71
2023/08/26 11:58:20;;;;;;;1999.90;999.90;;;21.70;71.30;;;;;;5081016;28;20036;-71